Aeroporto :
LOGIN :

Iscrizione | Disclaimer

   EN    FR    IT 

 










Sommario :    VFR   VFR Marginale   IFR   IFR Intensivo   IFR Molto Intensivo
Visibilità : 
Base nubi : 
>= 8 km
>= 3000ft
5 / 8 km
1000 / 3000 ft
1500m / 5 km
500 / 1000 ft
800 / 1500m
200 / 500 ft
< 800m
< 200 ft
Simboli :   Temporali  Nebbia  Neve Forte  Precipitazioni Forti  Vento > 20 kt
SIGMETs :   Varie  Temporali  Ghiacco  Turbolenza  Onda orograficha  Ceneri Vulcaniche






- Altitudine del aeroporto : 1548 ft


LKNA - Náměšť Air Base

ULTIMO METAR :
  • 220400Z 35005KT CAVOK 08/08 Q1022 NOSIG RMK BLU BLU

METARs OBSOLETI :
  • 220300Z 33007KT CAVOK 09/09 Q1022 RMK BLU
  • 220200Z 32007KT CAVOK 11/11 Q1022 RMK BLU

TAF TAF LKNA
Valido dal 22 a 00 ore il 23 a 00 ore UTC


212300Z 2200/2300 35006KT CAVOK
BECMG 2200/2202 2000 BR VV002
PROB40 2204/2208 0300 FG VV001
BECMG 2208/2210 4000 OVC008
BECMG 2212/2214 12006KT 9999 BKN015
BECMG 2218/2220 2000 BR BKN005
PROB40 2220/2300 0600 FG VV001



MetMap, La meteo Aeronautica in un colpo d'occhio ! - Copyright ORBIFLY Dicembre 2007 - Disclaimer

ORBIFLY MET'MAP TEAM :

Programmazione e sviluppo : Alexandra Zaïnal
Concezione e sviluppo : Baudouin d'Aumeries
Co-Programmazione e sviluppo : Marc-Olivier Méhu
Supporto tecnico e logistico : Manuel Goepfert
Aiuto per la traduzione : Arnaldo La Scala

Contatto : metmap@orbifly.com




FONTI E CREDITI :

   NOAA